Time;durP1;ratioP1;P1;durP2;ratioP2;P2;SDS_P1;SDS_P2;PMS_P1;PMS_P2;Temp;Humidity;BMP_temperature;BMP_pressure;BME280_temperature;BME280_humidity;BME280_pressure;Samples;Min_cycle;Max_cycle;Signal;HPM_P1;HPM_P2
2022/03/29 00:02:07;;;;;;;44.03;20.60;;;;;;;;;;5107167;28;20040;-80
2022/03/29 00:04:34;;;;;;;41.88;20.55;;;;;;;;;;5107506;28;20048;-80
2022/03/29 00:07:01;;;;;;;40.65;20.77;;;;;;;;;;5108080;28;20826;-80
2022/03/29 00:09:27;;;;;;;39.40;19.05;;;;;;;;;;5108643;28;20053;-80
2022/03/29 00:11:53;;;;;;;42.67;21.55;;;;;;;;;;5107714;28;20047;-80
2022/03/29 00:14:20;;;;;;;40.38;20.02;;;;;;;;;;5125121;28;20048;-80
2022/03/29 00:16:46;;;;;;;42.40;20.63;;;;;;;;;;5123592;28;20078;-80
2022/03/29 00:19:13;;;;;;;46.92;21.52;;;;;;;;;;5106354;28;20062;-80
2022/03/29 00:21:40;;;;;;;37.97;19.23;;;;;;;;;;5124474;27;20086;-80
2022/03/29 00:24:06;;;;;;;42.60;21.15;;;;;;;;;;5107879;28;20052;-80
2022/03/29 00:26:33;;;;;;;38.20;18.85;;;;;;;;;;5107687;28;20789;-80
2022/03/29 00:28:59;;;;;;;37.15;19.52;;;;;;;;;;5107162;28;20060;-81
2022/03/29 00:31:25;;;;;;;36.60;19.08;;;;;;;;;;5125983;28;20067;-80
2022/03/29 00:33:52;;;;;;;40.88;20.33;;;;;;;;;;5124351;28;20044;-80
2022/03/29 00:36:18;;;;;;;38.58;20.00;;;;;;;;;;5108339;28;20078;-80
2022/03/29 00:38:48;;;;;;;36.15;18.15;;;;;;;;;;5106532;28;20066;-80
2022/03/29 00:41:14;;;;;;;43.33;19.40;;;;;;;;;;5107621;28;20052;-79
2022/03/29 00:43:41;;;;;;;40.65;19.85;;;;;;;;;;5107821;28;20403;-80
2022/03/29 00:46:07;;;;;;;40.58;19.80;;;;;;;;;;5100646;28;20503;-80
2022/03/29 00:48:34;;;;;;;38.83;20.15;;;;;;;;;;5121508;28;20044;-80
2022/03/29 00:51:01;;;;;;;40.03;19.88;;;;;;;;;;5106433;28;20044;-80
2022/03/29 00:53:28;;;;;;;41.25;20.45;;;;;;;;;;5107194;28;20036;-80
2022/03/29 00:55:55;;;;;;;41.38;20.08;;;;;;;;;;5113110;27;20039;-80
2022/03/29 00:58:21;;;;;;;39.35;20.00;;;;;;;;;;5135789;27;20052;-80
2022/03/29 01:00:48;;;;;;;43.85;21.60;;;;;;;;;;5109925;28;20070;-80
2022/03/29 01:03:15;;;;;;;40.42;19.60;;;;;;;;;;5110362;28;20107;-80
2022/03/29 01:05:42;;;;;;;39.75;20.00;;;;;;;;;;5110742;28;20086;-80
2022/03/29 01:08:09;;;;;;;42.00;20.42;;;;;;;;;;5111350;28;20036;-80
2022/03/29 01:10:36;;;;;;;45.20;21.48;;;;;;;;;;5110011;28;20044;-80
2022/03/29 01:13:05;;;;;;;45.45;21.20;;;;;;;;;;5123058;27;20052;-80
2022/03/29 01:15:34;;;;;;;46.17;20.83;;;;;;;;;;5111067;28;20040;-80
2022/03/29 01:18:01;;;;;;;42.47;21.05;;;;;;;;;;5111507;28;20036;-79
2022/03/29 01:20:28;;;;;;;46.20;21.90;;;;;;;;;;5109793;28;20133;-80
2022/03/29 01:22:55;;;;;;;47.67;22.20;;;;;;;;;;5123630;27;20044;-80
2022/03/29 01:25:26;;;;;;;46.72;21.77;;;;;;;;;;5110839;28;20036;-80
2022/03/29 01:27:53;;;;;;;42.42;20.20;;;;;;;;;;5129869;28;20052;-80
2022/03/29 01:30:20;;;;;;;43.60;21.00;;;;;;;;;;5109505;28;20052;-80
2022/03/29 01:32:48;;;;;;;42.38;20.27;;;;;;;;;;5109953;28;20062;-80
2022/03/29 01:35:15;;;;;;;42.88;19.80;;;;;;;;;;5119970;28;20044;-80
2022/03/29 01:37:42;;;;;;;43.10;19.92;;;;;;;;;;5099001;28;20048;-80
2022/03/29 01:40:13;;;;;;;42.00;19.42;;;;;;;;;;5115656;28;20048;-80
2022/03/29 01:42:42;;;;;;;46.30;20.35;;;;;;;;;;5124716;28;20052;-80
2022/03/29 01:45:09;;;;;;;40.50;20.45;;;;;;;;;;5108263;28;20032;-80
2022/03/29 01:47:35;;;;;;;43.38;20.05;;;;;;;;;;5111043;28;20060;-80
2022/03/29 01:50:02;;;;;;;41.75;18.92;;;;;;;;;;5110981;28;20118;-80
2022/03/29 01:52:28;;;;;;;43.30;19.67;;;;;;;;;;5108246;27;20041;-80
2022/03/29 01:54:55;;;;;;;45.30;20.40;;;;;;;;;;5097812;28;20048;-80
2022/03/29 01:57:25;;;;;;;41.85;20.15;;;;;;;;;;5111120;28;20131;-80
2022/03/29 02:02:37;;;;;;;50.00;20.45;;;;;;;;;;5134448;27;20058;-80
2022/03/29 02:05:03;;;;;;;44.47;19.83;;;;;;;;;;5130689;27;20071;-80
2022/03/29 02:07:30;;;;;;;45.35;20.08;;;;;;;;;;5144378;27;20056;-80
2022/03/29 02:09:57;;;;;;;43.90;20.17;;;;;;;;;;5110786;28;20082;-80
2022/03/29 02:12:23;;;;;;;44.30;20.17;;;;;;;;;;5109885;28;20525;-80
2022/03/29 02:14:50;;;;;;;52.35;20.60;;;;;;;;;;5110649;28;20137;-80
2022/03/29 02:17:16;;;;;;;45.00;20.20;;;;;;;;;;5109082;28;20044;-80
2022/03/29 02:19:42;;;;;;;43.85;19.10;;;;;;;;;;5108538;28;20044;-80
2022/03/29 02:22:09;;;;;;;49.35;20.02;;;;;;;;;;5109766;28;20564;-80
2022/03/29 02:24:35;;;;;;;38.85;17.95;;;;;;;;;;5127202;28;20049;-80
2022/03/29 02:27:05;;;;;;;42.20;19.52;;;;;;;;;;5110875;27;20106;-80
2022/03/29 02:29:33;;;;;;;45.85;19.92;;;;;;;;;;5126202;27;20056;-80
2022/03/29 02:31:59;;;;;;;50.90;19.50;;;;;;;;;;5110986;28;20056;-80
2022/03/29 02:34:26;;;;;;;44.05;19.85;;;;;;;;;;5109113;28;20055;-81
2022/03/29 02:36:52;;;;;;;46.05;20.60;;;;;;;;;;5110480;28;20074;-80
2022/03/29 02:39:19;;;;;;;49.75;20.88;;;;;;;;;;5110484;28;20056;-80
2022/03/29 02:41:45;;;;;;;46.05;20.15;;;;;;;;;;5107580;28;20047;-80
2022/03/29 02:44:11;;;;;;;41.92;19.25;;;;;;;;;;5107863;27;20045;-79
2022/03/29 02:46:41;;;;;;;44.20;18.85;;;;;;;;;;5126550;28;20860;-80
2022/03/29 02:49:08;;;;;;;50.33;20.65;;;;;;;;;;5108996;28;20040;-80
2022/03/29 02:51:34;;;;;;;45.08;19.02;;;;;;;;;;5108604;28;20047;-80
2022/03/29 02:54:00;;;;;;;44.72;20.25;;;;;;;;;;5109091;28;20170;-80
2022/03/29 02:56:27;;;;;;;44.08;20.10;;;;;;;;;;5107717;28;20729;-80
2022/03/29 02:58:54;;;;;;;54.55;20.13;;;;;;;;;;5109158;28;20530;-80
2022/03/29 03:01:20;;;;;;;56.80;18.98;;;;;;;;;;5125962;28;20066;-80
2022/03/29 03:03:47;;;;;;;50.95;18.92;;;;;;;;;;5108178;28;20905;-80
2022/03/29 03:06:14;;;;;;;44.97;19.33;;;;;;;;;;5108290;28;20579;-80
2022/03/29 03:08:40;;;;;;;45.33;19.73;;;;;;;;;;5115394;28;20102;-80
2022/03/29 03:11:07;;;;;;;61.72;19.73;;;;;;;;;;5125289;28;20170;-80
2022/03/29 03:13:35;;;;;;;49.13;18.60;;;;;;;;;;5126243;28;20056;-80
2022/03/29 03:16:01;;;;;;;47.83;19.52;;;;;;;;;;5121757;28;20051;-80
2022/03/29 03:18:28;;;;;;;46.53;19.02;;;;;;;;;;5108228;28;20048;-80
2022/03/29 03:20:54;;;;;;;53.05;20.63;;;;;;;;;;5107576;28;20048;-80
2022/03/29 03:23:21;;;;;;;63.35;21.13;;;;;;;;;;5124570;27;20044;-79
2022/03/29 03:25:48;;;;;;;51.05;20.95;;;;;;;;;;5106959;28;20100;-79
2022/03/29 03:28:14;;;;;;;42.58;19.02;;;;;;;;;;5108702;28;20052;-80
2022/03/29 03:30:40;;;;;;;43.83;19.83;;;;;;;;;;5108221;28;20040;-80
2022/03/29 03:33:07;;;;;;;41.20;18.92;;;;;;;;;;5107174;28;20044;-80
2022/03/29 03:35:33;;;;;;;44.55;18.65;;;;;;;;;;5107440;28;20110;-81
2022/03/29 03:38:00;;;;;;;41.50;19.05;;;;;;;;;;5125413;28;20044;-80
2022/03/29 03:40:26;;;;;;;50.20;19.70;;;;;;;;;;5108009;28;20129;-80
2022/03/29 03:42:52;;;;;;;65.13;19.15;;;;;;;;;;5107483;28;20071;-80
2022/03/29 03:45:19;;;;;;;64.35;18.05;;;;;;;;;;5109057;28;20052;-80
2022/03/29 03:47:46;;;;;;;46.50;18.20;;;;;;;;;;5108360;28;20052;-80
2022/03/29 03:50:12;;;;;;;47.88;18.83;;;;;;;;;;5107924;28;20062;-80
2022/03/29 03:52:39;;;;;;;57.45;18.25;;;;;;;;;;5106587;28;20889;-80
2022/03/29 03:55:07;;;;;;;43.33;18.33;;;;;;;;;;5108264;28;20060;-80
2022/03/29 03:57:34;;;;;;;46.85;18.83;;;;;;;;;;5108155;28;20604;-80
2022/03/29 04:00:01;;;;;;;35.92;17.85;;;;;;;;;;5107436;28;20109;-80
2022/03/29 04:02:27;;;;;;;39.42;18.35;;;;;;;;;;5120993;28;20048;-80
2022/03/29 04:04:54;;;;;;;44.60;18.38;;;;;;;;;;5125387;28;20087;-80
2022/03/29 04:07:21;;;;;;;39.28;18.23;;;;;;;;;;5107178;28;20040;-80
2022/03/29 04:09:47;;;;;;;44.63;19.48;;;;;;;;;;5108221;28;20102;-79
2022/03/29 04:12:13;;;;;;;42.30;18.25;;;;;;;;;;5107336;28;20077;-80
2022/03/29 04:14:40;;;;;;;41.65;18.75;;;;;;;;;;5107577;28;20074;-80
2022/03/29 04:17:08;;;;;;;41.70;17.23;;;;;;;;;;5105828;28;20137;-80
2022/03/29 04:19:34;;;;;;;34.65;16.02;;;;;;;;;;5122209;28;20052;-80
2022/03/29 04:22:01;;;;;;;37.47;16.77;;;;;;;;;;5124785;28;20530;-80
2022/03/29 04:24:28;;;;;;;38.72;17.65;;;;;;;;;;5106692;28;20036;-80
2022/03/29 04:26:54;;;;;;;40.35;17.98;;;;;;;;;;5105708;28;20058;-80
2022/03/29 04:29:21;;;;;;;39.08;17.60;;;;;;;;;;5122457;28;20675;-80
2022/03/29 04:31:48;;;;;;;43.08;17.98;;;;;;;;;;5105137;28;20106;-79
2022/03/29 04:34:15;;;;;;;36.45;16.98;;;;;;;;;;5106007;27;20066;-80
2022/03/29 04:36:41;;;;;;;35.47;17.02;;;;;;;;;;5108770;28;20098;-80
2022/03/29 04:39:08;;;;;;;40.63;18.33;;;;;;;;;;5111105;28;20082;-80
2022/03/29 04:41:34;;;;;;;44.35;17.23;;;;;;;;;;5114089;28;20048;-80
2022/03/29 04:44:20;;;;;;;38.60;18.23;;;;;;;;;;5112098;28;20040;-79
2022/03/29 04:46:47;;;;;;;38.10;17.30;;;;;;;;;;5108936;28;20052;-80
2022/03/29 04:49:13;;;;;;;38.92;17.88;;;;;;;;;;5109440;28;20074;-80
2022/03/29 04:51:40;;;;;;;37.25;18.08;;;;;;;;;;5109870;28;20059;-79
2022/03/29 04:54:06;;;;;;;37.55;17.75;;;;;;;;;;5109102;28;20946;-80
2022/03/29 04:56:33;;;;;;;38.78;17.77;;;;;;;;;;5110256;28;20060;-80
2022/03/29 04:58:59;;;;;;;40.83;18.25;;;;;;;;;;5108247;28;20059;-81
2022/03/29 05:01:25;;;;;;;41.15;18.45;;;;;;;;;;5109272;28;20052;-81
2022/03/29 05:03:52;;;;;;;41.58;17.75;;;;;;;;;;5094774;28;20091;-81
2022/03/29 05:06:18;;;;;;;40.75;18.88;;;;;;;;;;5108295;28;20075;-81
2022/03/29 05:08:45;;;;;;;37.75;17.48;;;;;;;;;;5109247;28;20051;-80
2022/03/29 05:11:11;;;;;;;44.85;18.90;;;;;;;;;;5108725;28;20098;-80
2022/03/29 05:13:38;;;;;;;45.53;18.92;;;;;;;;;;5110141;28;20056;-81
2022/03/29 05:16:05;;;;;;;38.65;17.42;;;;;;;;;;5106370;27;20056;-78
2022/03/29 05:18:31;;;;;;;40.22;18.83;;;;;;;;;;5096599;28;20067;-78
2022/03/29 05:20:57;;;;;;;46.03;18.75;;;;;;;;;;5131570;27;20113;-78
2022/03/29 05:23:24;;;;;;;41.75;18.63;;;;;;;;;;5115968;28;20052;-78
2022/03/29 05:25:50;;;;;;;39.28;16.70;;;;;;;;;;5099391;27;20071;-78
2022/03/29 05:28:16;;;;;;;52.63;18.55;;;;;;;;;;5099166;28;20056;-78
2022/03/29 05:30:43;;;;;;;45.05;18.88;;;;;;;;;;5101466;28;20067;-78
2022/03/29 05:33:15;;;;;;;41.90;18.38;;;;;;;;;;5119402;28;20112;-79
2022/03/29 05:35:43;;;;;;;44.75;18.83;;;;;;;;;;5121996;27;20102;-79
2022/03/29 05:38:10;;;;;;;45.05;18.50;;;;;;;;;;5124038;28;21018;-79
2022/03/29 05:40:37;;;;;;;47.53;19.40;;;;;;;;;;5122614;28;20068;-79
2022/03/29 05:43:07;;;;;;;42.72;18.30;;;;;;;;;;5107101;28;20581;-79
2022/03/29 05:45:34;;;;;;;45.40;18.30;;;;;;;;;;5104024;28;20596;-79
2022/03/29 05:50:46;;;;;;;41.75;18.02;;;;;;;;;;5121693;27;20036;-79
2022/03/29 05:53:12;;;;;;;45.25;17.83;;;;;;;;;;5106218;28;20040;-79
2022/03/29 05:55:38;;;;;;;42.63;17.92;;;;;;;;;;5107718;28;20052;-79
2022/03/29 05:58:05;;;;;;;45.85;18.83;;;;;;;;;;5092251;27;20053;-78
2022/03/29 06:00:31;;;;;;;46.92;19.40;;;;;;;;;;5104876;28;20865;-78
2022/03/29 06:02:58;;;;;;;42.70;19.40;;;;;;;;;;5106317;28;20088;-78
2022/03/29 06:05:24;;;;;;;47.80;18.92;;;;;;;;;;5106181;28;20048;-79
2022/03/29 06:07:51;;;;;;;40.58;17.77;;;;;;;;;;5124504;28;20855;-79
2022/03/29 06:10:17;;;;;;;47.28;18.83;;;;;;;;;;5107327;28;20048;-79
2022/03/29 06:12:44;;;;;;;44.05;18.58;;;;;;;;;;5107163;28;20032;-79
2022/03/29 06:15:11;;;;;;;45.75;18.90;;;;;;;;;;5104226;28;20191;-79
2022/03/29 06:17:38;;;;;;;43.83;18.92;;;;;;;;;;5099733;28;20109;-79
2022/03/29 06:20:06;;;;;;;46.72;19.65;;;;;;;;;;5125086;28;20078;-79
2022/03/29 06:22:36;;;;;;;44.65;18.30;;;;;;;;;;5110813;27;20135;-78
2022/03/29 06:25:03;;;;;;;43.47;19.13;;;;;;;;;;5101200;28;20052;-78
2022/03/29 06:27:29;;;;;;;47.88;19.30;;;;;;;;;;5115822;28;20461;-78
2022/03/29 06:29:57;;;;;;;44.20;18.75;;;;;;;;;;5102006;28;20082;-78
2022/03/29 06:32:23;;;;;;;46.85;19.48;;;;;;;;;;5101493;28;20106;-78
2022/03/29 06:34:50;;;;;;;49.60;19.25;;;;;;;;;;5117919;28;20070;-78
2022/03/29 06:37:16;;;;;;;47.15;19.85;;;;;;;;;;5104691;28;20104;-78
2022/03/29 06:39:42;;;;;;;49.28;19.42;;;;;;;;;;5118690;28;21261;-78
2022/03/29 06:42:09;;;;;;;47.97;18.90;;;;;;;;;;5118251;28;20056;-77
2022/03/29 06:44:35;;;;;;;45.33;20.05;;;;;;;;;;5118377;28;20060;-78
2022/03/29 06:47:02;;;;;;;39.75;17.90;;;;;;;;;;5119270;28;20048;-79
2022/03/29 06:49:29;;;;;;;44.63;18.15;;;;;;;;;;5118361;28;20856;-79
2022/03/29 06:51:56;;;;;;;45.53;18.83;;;;;;;;;;5099886;28;20053;-79
2022/03/29 06:54:22;;;;;;;49.53;19.88;;;;;;;;;;5120039;28;20086;-78
2022/03/29 06:56:49;;;;;;;48.75;20.27;;;;;;;;;;5120082;27;20070;-79
2022/03/29 06:59:16;;;;;;;46.10;19.92;;;;;;;;;;5116472;27;20071;-78
2022/03/29 07:01:42;;;;;;;48.55;19.02;;;;;;;;;;5095059;28;20070;-79
2022/03/29 07:04:09;;;;;;;47.75;19.90;;;;;;;;;;5104193;28;20108;-79
2022/03/29 07:06:35;;;;;;;46.33;20.30;;;;;;;;;;5101420;28;20933;-79
2022/03/29 07:12:00;;;;;;;42.55;19.23;;;;;;;;;;5117220;28;20154;-79
2022/03/29 07:14:27;;;;;;;43.45;18.08;;;;;;;;;;5102146;28;20071;-79
2022/03/29 07:16:53;;;;;;;46.63;18.95;;;;;;;;;;5094277;28;20870;-78
2022/03/29 07:19:21;;;;;;;44.33;18.88;;;;;;;;;;5103234;28;20131;-78
2022/03/29 07:21:49;;;;;;;50.15;20.13;;;;;;;;;;5095426;27;20139;-79
2022/03/29 07:24:16;;;;;;;50.85;19.90;;;;;;;;;;5100260;28;20036;-79
2022/03/29 07:26:42;;;;;;;39.53;17.55;;;;;;;;;;5104406;28;20052;-79
2022/03/29 07:29:18;;;;;;;41.45;18.88;;;;;;;;;;5107820;28;20051;-79
2022/03/29 07:31:45;;;;;;;41.45;18.08;;;;;;;;;;5102804;27;20142;-79
2022/03/29 07:34:11;;;;;;;34.35;16.85;;;;;;;;;;5107454;28;20052;-79
2022/03/29 07:36:38;;;;;;;38.00;17.52;;;;;;;;;;5101464;28;20052;-79
2022/03/29 07:39:04;;;;;;;37.35;17.70;;;;;;;;;;5118451;28;20066;-79
2022/03/29 07:41:31;;;;;;;42.03;17.48;;;;;;;;;;5113082;27;20056;-79
2022/03/29 07:43:58;;;;;;;38.20;17.73;;;;;;;;;;5117076;27;20048;-79
2022/03/29 07:46:24;;;;;;;38.13;17.77;;;;;;;;;;5120751;28;20052;-79
2022/03/29 07:48:51;;;;;;;45.00;19.42;;;;;;;;;;5122778;28;20046;-78
2022/03/29 07:51:38;;;;;;;38.65;18.88;;;;;;;;;;5106785;28;20087;-79
2022/03/29 07:54:05;;;;;;;43.40;18.73;;;;;;;;;;5104039;28;20099;-79
2022/03/29 07:56:32;;;;;;;44.40;20.52;;;;;;;;;;5122643;27;20063;-79
2022/03/29 07:59:01;;;;;;;43.90;19.65;;;;;;;;;;5103379;28;20064;-79
2022/03/29 08:01:29;;;;;;;44.65;19.10;;;;;;;;;;5102937;28;20102;-79
2022/03/29 08:03:55;;;;;;;41.92;19.13;;;;;;;;;;5103586;28;20226;-79
2022/03/29 08:06:22;;;;;;;42.10;20.08;;;;;;;;;;5103380;28;20070;-79
2022/03/29 08:08:49;;;;;;;43.70;19.60;;;;;;;;;;5105773;28;20551;-79
2022/03/29 08:11:15;;;;;;;43.22;20.23;;;;;;;;;;5108333;28;20106;-79
2022/03/29 08:13:42;;;;;;;44.72;20.23;;;;;;;;;;5109222;28;20056;-79
2022/03/29 08:16:11;;;;;;;42.65;18.77;;;;;;;;;;5126319;27;20086;-79
2022/03/29 08:18:39;;;;;;;44.28;19.92;;;;;;;;;;5124060;28;20091;-79
2022/03/29 08:21:47;;;;;;;45.03;20.25;;;;;;;;;;5104623;28;20510;-79
2022/03/29 08:23:53;;;;;;;43.83;18.63;;;;;;;;;;5125834;28;20037;-80
2022/03/29 08:26:19;;;;;;;46.95;20.33;;;;;;;;;;5125692;27;20039;-79
2022/03/29 08:28:46;;;;;;;47.17;20.77;;;;;;;;;;5112324;28;20047;-79
2022/03/29 08:31:12;;;;;;;44.80;20.55;;;;;;;;;;5117630;28;20056;-79
2022/03/29 08:33:39;;;;;;;44.10;19.73;;;;;;;;;;5121471;28;20064;-79
2022/03/29 08:36:05;;;;;;;43.53;19.73;;;;;;;;;;5107601;28;20049;-79
2022/03/29 08:38:32;;;;;;;44.20;19.55;;;;;;;;;;5122894;27;20832;-80
2022/03/29 08:40:59;;;;;;;48.63;19.67;;;;;;;;;;5107755;28;20040;-79
2022/03/29 08:43:27;;;;;;;41.55;19.48;;;;;;;;;;5117920;27;20146;-79
2022/03/29 08:45:55;;;;;;;41.90;18.77;;;;;;;;;;5105328;28;20051;-81
2022/03/29 08:48:22;;;;;;;43.83;19.65;;;;;;;;;;5110754;27;20117;-82
2022/03/29 08:50:49;;;;;;;41.17;19.33;;;;;;;;;;5101339;28;20053;-81
2022/03/29 08:53:16;;;;;;;40.97;19.38;;;;;;;;;;5095947;28;20063;-79
2022/03/29 08:55:44;;;;;;;39.60;18.10;;;;;;;;;;5113982;27;20056;-79
2022/03/29 08:58:11;;;;;;;35.85;17.23;;;;;;;;;;5114976;27;20047;-80
2022/03/29 09:00:38;;;;;;;38.05;17.23;;;;;;;;;;5113296;28;20067;-79
2022/03/29 09:03:05;;;;;;;39.58;17.48;;;;;;;;;;5096375;28;20056;-79
2022/03/29 09:05:32;;;;;;;37.95;17.67;;;;;;;;;;5098312;28;20714;-79
2022/03/29 09:08:00;;;;;;;38.15;18.17;;;;;;;;;;5096823;27;20052;-80
2022/03/29 09:10:48;;;;;;;37.22;16.85;;;;;;;;;;5115991;28;20048;-78
2022/03/29 09:13:15;;;;;;;36.67;16.10;;;;;;;;;;5115032;28;20146;-78
2022/03/29 09:15:42;;;;;;;36.38;16.45;;;;;;;;;;5115027;27;20682;-79
2022/03/29 09:18:08;;;;;;;37.63;16.77;;;;;;;;;;5117858;28;20040;-79
2022/03/29 09:20:35;;;;;;;38.10;17.00;;;;;;;;;;5101203;27;20044;-80
2022/03/29 09:23:01;;;;;;;39.10;16.38;;;;;;;;;;5111399;28;20044;-79
2022/03/29 09:25:35;;;;;;;37.85;16.45;;;;;;;;;;5095405;28;20121;-80
2022/03/29 09:28:03;;;;;;;44.03;18.05;;;;;;;;;;5118750;28;20052;-80
2022/03/29 09:30:58;;;;;;;36.28;17.70;;;;;;;;;;5119778;27;20079;-81
2022/03/29 09:33:32;;;;;;;39.90;17.50;;;;;;;;;;5083726;28;20052;-80
2022/03/29 09:36:00;;;;;;;40.97;17.80;;;;;;;;;;5100988;28;20110;-80
2022/03/29 09:38:30;;;;;;;35.05;16.33;;;;;;;;;;5101493;28;20054;-78
2022/03/29 09:40:58;;;;;;;36.03;17.20;;;;;;;;;;5119099;27;20138;-80
2022/03/29 09:43:25;;;;;;;45.22;16.92;;;;;;;;;;5102967;27;20052;-79
2022/03/29 09:45:55;;;;;;;38.15;17.92;;;;;;;;;;5120851;27;20056;-79
2022/03/29 09:48:22;;;;;;;35.70;17.75;;;;;;;;;;5121533;28;20055;-79
2022/03/29 09:50:51;;;;;;;36.90;16.08;;;;;;;;;;5101854;28;20086;-79
2022/03/29 09:53:37;;;;;;;36.00;16.17;;;;;;;;;;5100931;28;20056;-79
2022/03/29 09:56:05;;;;;;;32.47;15.23;;;;;;;;;;5115278;28;20143;-80
2022/03/29 09:58:31;;;;;;;33.72;15.90;;;;;;;;;;5099718;28;20151;-79
2022/03/29 10:00:57;;;;;;;34.90;15.60;;;;;;;;;;5102129;28;20525;-79
2022/03/29 10:03:25;;;;;;;39.58;16.38;;;;;;;;;;5120369;28;20192;-80
2022/03/29 10:06:01;;;;;;;39.05;17.95;;;;;;;;;;5120611;28;20044;-80
2022/03/29 10:11:16;;;;;;;41.03;17.00;;;;;;;;;;5119628;28;20143;-80
2022/03/29 10:13:42;;;;;;;38.88;17.95;;;;;;;;;;5116465;28;20040;-80
2022/03/29 10:16:10;;;;;;;37.63;16.92;;;;;;;;;;5098724;28;20859;-80
2022/03/29 10:18:37;;;;;;;37.72;16.58;;;;;;;;;;5099422;28;20062;-79
2022/03/29 10:21:04;;;;;;;35.63;16.35;;;;;;;;;;5116416;28;20040;-80
2022/03/29 10:23:31;;;;;;;31.88;16.33;;;;;;;;;;5118701;28;20140;-80
2022/03/29 10:25:58;;;;;;;32.38;15.85;;;;;;;;;;5115404;28;20066;-81
2022/03/29 10:28:28;;;;;;;36.20;16.90;;;;;;;;;;5099308;28;20571;-79
2022/03/29 10:30:55;;;;;;;36.42;16.50;;;;;;;;;;5091979;28;20049;-80
2022/03/29 10:33:23;;;;;;;36.50;17.15;;;;;;;;;;5092302;28;20091;-81
2022/03/29 10:36:11;;;;;;;35.63;17.15;;;;;;;;;;5105793;27;20074;-82
2022/03/29 10:38:43;;;;;;;33.05;16.48;;;;;;;;;;5084163;28;20040;-78
2022/03/29 10:41:28;;;;;;;35.78;16.75;;;;;;;;;;5097268;28;20583;-79
2022/03/29 10:44:04;;;;;;;33.63;16.77;;;;;;;;;;5092091;28;20087;-78
2022/03/29 10:46:39;;;;;;;35.85;16.58;;;;;;;;;;5114923;28;20036;-79
2022/03/29 10:49:24;;;;;;;33.15;15.63;;;;;;;;;;5097471;28;20083;-78
2022/03/29 10:51:51;;;;;;;33.22;16.58;;;;;;;;;;5095533;28;20542;-79
2022/03/29 10:54:24;;;;;;;33.78;16.40;;;;;;;;;;5087169;28;20036;-79
2022/03/29 10:56:57;;;;;;;32.28;17.42;;;;;;;;;;5112018;28;20065;-79
2022/03/29 10:59:24;;;;;;;31.80;17.15;;;;;;;;;;5097409;28;20052;-79
2022/03/29 11:02:07;;;;;;;31.20;17.75;;;;;;;;;;5096228;28;20101;-79
2022/03/29 11:04:34;;;;;;;31.63;16.08;;;;;;;;;;5106336;28;20067;-80
2022/03/29 11:07:06;;;;;;;30.55;16.02;;;;;;;;;;5092408;28;20508;-79
2022/03/29 11:09:33;;;;;;;33.30;16.75;;;;;;;;;;5107110;28;20052;-78
2022/03/29 11:12:00;;;;;;;31.15;16.23;;;;;;;;;;5114262;28;20114;-80
2022/03/29 11:14:30;;;;;;;31.15;17.15;;;;;;;;;;5114166;28;20043;-80
2022/03/29 11:17:09;;;;;;;28.30;16.27;;;;;;;;;;5113989;27;20052;-80
2022/03/29 11:19:46;;;;;;;32.38;16.05;;;;;;;;;;5109907;28;20052;-79
2022/03/29 11:22:21;;;;;;;25.88;15.13;;;;;;;;;;5094974;28;20052;-79
2022/03/29 11:24:48;;;;;;;28.48;14.88;;;;;;;;;;5094101;28;20098;-80
2022/03/29 11:27:26;;;;;;;27.80;15.30;;;;;;;;;;5094716;28;20105;-79
2022/03/29 11:29:53;;;;;;;27.60;15.35;;;;;;;;;;5111225;27;20051;-80
2022/03/29 11:32:20;;;;;;;30.63;15.73;;;;;;;;;;5114323;28;20041;-80
2022/03/29 11:34:50;;;;;;;28.17;15.77;;;;;;;;;;5111204;27;20102;-79
2022/03/29 11:37:27;;;;;;;30.85;14.95;;;;;;;;;;5106799;28;20051;-80
2022/03/29 11:39:54;;;;;;;28.95;14.48;;;;;;;;;;5102941;28;20137;-80
2022/03/29 11:42:20;;;;;;;26.40;15.90;;;;;;;;;;5106717;27;20423;-80
2022/03/29 11:44:47;;;;;;;28.60;15.77;;;;;;;;;;5101783;27;20052;-80
2022/03/29 11:47:14;;;;;;;25.63;15.38;;;;;;;;;;5100424;27;20894;-80
2022/03/29 11:49:41;;;;;;;28.10;16.17;;;;;;;;;;5109405;28;20840;-80
2022/03/29 11:52:08;;;;;;;27.45;15.80;;;;;;;;;;5109020;28;20088;-78
2022/03/29 11:54:52;;;;;;;26.15;15.75;;;;;;;;;;5086904;28;20048;-80
2022/03/29 11:57:23;;;;;;;26.60;15.07;;;;;;;;;;5100733;27;20052;-80
2022/03/29 11:59:53;;;;;;;25.67;16.00;;;;;;;;;;5089543;28;20101;-80
2022/03/29 12:02:26;;;;;;;26.77;15.40;;;;;;;;;;5107244;27;20052;-80
2022/03/29 12:04:54;;;;;;;25.50;14.90;;;;;;;;;;5094471;27;20517;-80
2022/03/29 12:07:34;;;;;;;30.08;16.13;;;;;;;;;;5107759;27;20071;-80
2022/03/29 12:10:01;;;;;;;25.45;15.30;;;;;;;;;;5109365;28;20506;-79
2022/03/29 12:12:27;;;;;;;25.30;15.50;;;;;;;;;;5088026;28;20102;-79
2022/03/29 12:15:03;;;;;;;26.55;15.10;;;;;;;;;;5117156;27;20052;-80
2022/03/29 12:17:30;;;;;;;29.33;16.17;;;;;;;;;;5091084;28;20047;-79
2022/03/29 12:19:57;;;;;;;26.90;14.73;;;;;;;;;;5107918;27;20106;-79
2022/03/29 12:22:26;;;;;;;28.45;15.57;;;;;;;;;;5090771;28;20131;-79
2022/03/29 12:24:55;;;;;;;28.00;15.93;;;;;;;;;;5082859;28;20060;-80
2022/03/29 12:27:22;;;;;;;27.55;15.32;;;;;;;;;;5100676;28;20511;-79
2022/03/29 12:29:53;;;;;;;28.23;14.93;;;;;;;;;;5108004;28;21009;-80
2022/03/29 12:32:20;;;;;;;33.40;15.75;;;;;;;;;;5090273;28;20523;-80
2022/03/29 12:34:57;;;;;;;30.55;15.55;;;;;;;;;;5095575;27;20138;-80
2022/03/29 12:37:24;;;;;;;29.70;15.82;;;;;;;;;;5104665;28;20081;-79
2022/03/29 12:39:53;;;;;;;26.70;15.52;;;;;;;;;;5103880;28;20052;-80
2022/03/29 12:42:20;;;;;;;24.45;15.32;;;;;;;;;;5108836;28;20052;-79
2022/03/29 12:44:54;;;;;;;26.92;16.23;;;;;;;;;;5093800;28;20070;-80
2022/03/29 12:47:20;;;;;;;26.90;15.93;;;;;;;;;;5094901;28;20062;-80
2022/03/29 12:49:49;;;;;;;23.63;14.68;;;;;;;;;;5106440;27;20055;-80
2022/03/29 12:52:16;;;;;;;25.08;14.63;;;;;;;;;;5090670;28;20052;-79
2022/03/29 12:54:45;;;;;;;28.50;15.52;;;;;;;;;;5087056;28;20515;-80
2022/03/29 12:57:13;;;;;;;23.10;15.13;;;;;;;;;;5103010;27;20052;-79
2022/03/29 12:59:41;;;;;;;21.20;14.57;;;;;;;;;;5111454;28;20056;-78
2022/03/29 13:02:15;;;;;;;29.83;15.05;;;;;;;;;;5105694;27;20047;-80
2022/03/29 13:04:47;;;;;;;26.80;15.65;;;;;;;;;;5094605;27;20503;-80
2022/03/29 13:07:32;;;;;;;24.15;14.05;;;;;;;;;;5108701;27;20067;-80
2022/03/29 13:10:00;;;;;;;23.90;14.75;;;;;;;;;;5092856;28;20040;-80
2022/03/29 13:12:54;;;;;;;30.33;14.80;;;;;;;;;;5110753;28;20082;-80
2022/03/29 13:15:55;;;;;;;22.23;14.25;;;;;;;;;;5091224;28;22233;-80
2022/03/29 13:18:25;;;;;;;22.30;14.50;;;;;;;;;;5074975;28;20908;-79
2022/03/29 13:21:14;;;;;;;22.45;14.45;;;;;;;;;;5093451;27;20062;-80
2022/03/29 13:24:07;;;;;;;24.85;13.95;;;;;;;;;;5110190;28;20142;-80
2022/03/29 13:26:36;;;;;;;23.17;13.43;;;;;;;;;;5091704;28;20056;-80
2022/03/29 13:29:05;;;;;;;21.17;12.88;;;;;;;;;;5109732;27;20205;-80
2022/03/29 13:31:32;;;;;;;19.70;12.85;;;;;;;;;;5094991;28;20059;-80
2022/03/29 13:34:03;;;;;;;22.27;13.00;;;;;;;;;;5092937;28;20059;-80
2022/03/29 13:36:30;;;;;;;24.15;12.95;;;;;;;;;;5094247;28;20056;-79
2022/03/29 13:38:58;;;;;;;22.52;12.57;;;;;;;;;;5092793;28;20480;-80
2022/03/29 13:41:24;;;;;;;22.85;13.35;;;;;;;;;;5091297;28;20605;-80
2022/03/29 13:43:51;;;;;;;24.90;13.80;;;;;;;;;;5107790;28;20052;-80
2022/03/29 13:46:19;;;;;;;21.65;12.52;;;;;;;;;;5112640;28;20499;-80
2022/03/29 13:49:03;;;;;;;23.10;13.27;;;;;;;;;;5112167;28;20098;-80
2022/03/29 13:51:30;;;;;;;21.90;13.27;;;;;;;;;;5112466;28;20056;-79
2022/03/29 13:53:56;;;;;;;22.38;12.95;;;;;;;;;;5109489;28;20056;-80
2022/03/29 13:56:23;;;;;;;23.83;13.30;;;;;;;;;;5104204;28;20048;-80
2022/03/29 13:58:50;;;;;;;21.63;12.98;;;;;;;;;;5073694;28;20067;-79
2022/03/29 14:01:16;;;;;;;22.27;13.73;;;;;;;;;;5092158;28;20056;-80
2022/03/29 14:03:43;;;;;;;20.27;12.27;;;;;;;;;;5083171;28;20056;-80
2022/03/29 14:06:09;;;;;;;24.05;12.57;;;;;;;;;;5093750;28;20051;-80
2022/03/29 14:08:36;;;;;;;17.95;11.77;;;;;;;;;;5080113;28;20088;-80
2022/03/29 14:11:03;;;;;;;20.08;11.32;;;;;;;;;;5101085;28;20048;-80
2022/03/29 14:13:30;;;;;;;24.38;12.88;;;;;;;;;;5111689;28;20048;-79
2022/03/29 14:15:58;;;;;;;21.63;12.05;;;;;;;;;;5111214;28;20056;-80
2022/03/29 14:18:24;;;;;;;20.35;11.05;;;;;;;;;;5092671;28;20059;-80
2022/03/29 14:20:52;;;;;;;17.10;9.40;;;;;;;;;;5111198;28;20490;-79
2022/03/29 14:23:20;;;;;;;22.92;11.13;;;;;;;;;;5111539;28;20048;-80
2022/03/29 14:25:47;;;;;;;19.42;11.40;;;;;;;;;;5111053;28;20502;-80
2022/03/29 14:28:14;;;;;;;22.33;12.63;;;;;;;;;;5111030;28;20537;-80
2022/03/29 14:30:42;;;;;;;20.75;12.88;;;;;;;;;;5092675;28;20052;-80
2022/03/29 14:33:08;;;;;;;23.67;13.13;;;;;;;;;;5093081;28;20110;-80
2022/03/29 14:35:35;;;;;;;20.30;12.85;;;;;;;;;;5109445;28;20140;-79